Time;durP1;ratioP1;P1;durP2;ratioP2;P2;SDS_P1;SDS_P2;PMS_P1;PMS_P2;Temp;Humidity;BMP_temperature;BMP_pressure;BME280_temperature;BME280_humidity;BME280_pressure;Samples;Min_cycle;Max_cycle;Signal;HPM_P1;HPM_P2
2023/10/27 00:00:57;;;;;;;;;;;10.20;90.70;;;;;;4987199;28;20005;-68
2023/10/27 00:03:23;;;;;;;;;;;10.20;90.80;;;;;;4983036;28;19976;-68
2023/10/27 00:05:49;;;;;;;;;;;10.10;90.70;;;;;;4988245;28;19922;-68
2023/10/27 00:08:14;;;;;;;;;;;10.20;90.90;;;;;;4996784;28;19947;-68
2023/10/27 00:10:40;;;;;;;;;;;10.20;90.90;;;;;;5011111;28;19978;-68
2023/10/27 00:13:05;;;;;;;;;;;10.20;90.90;;;;;;4988042;28;19922;-68
2023/10/27 00:15:31;;;;;;;;;;;10.20;90.90;;;;;;4988242;28;20289;-68
2023/10/27 00:17:58;;;;;;;;;;;10.30;90.90;;;;;;4987686;28;19921;-67
2023/10/27 00:20:24;;;;;;;;;;;10.30;90.90;;;;;;5020397;28;20013;-68
2023/10/27 00:22:49;;;;;;;;;;;10.20;90.90;;;;;;4988007;28;19980;-68
2023/10/27 00:25:15;;;;;;;;;;;10.30;91.00;;;;;;4987772;28;20357;-69
2023/10/27 00:27:42;;;;;;;;;;;10.30;91.00;;;;;;4987565;28;19925;-69
2023/10/27 00:30:09;;;;;;;;;;;10.30;91.00;;;;;;4987838;28;19921;-68
2023/10/27 00:32:37;;;;;;;;;;;10.30;91.00;;;;;;4987506;28;19979;-68
2023/10/27 00:35:05;;;;;;;;;;;10.30;91.00;;;;;;4987656;28;19922;-68
2023/10/27 00:37:34;;;;;;;;;;;10.30;91.00;;;;;;4987873;28;19922;-69
2023/10/27 00:40:00;;;;;;;;;;;10.30;91.00;;;;;;4987371;28;19925;-68
2023/10/27 00:42:26;;;;;;;;;;;10.30;91.00;;;;;;4986652;28;19944;-68
2023/10/27 00:44:52;;;;;;;;;;;10.30;91.00;;;;;;4987856;28;19922;-68
2023/10/27 00:47:17;;;;;;;;;;;10.30;91.00;;;;;;4987284;28;19921;-68
2023/10/27 00:49:43;;;;;;;;;;;10.30;90.90;;;;;;4986768;28;19925;-69
2023/10/27 00:52:09;;;;;;;;;;;10.20;90.90;;;;;;4972992;28;19929;-68
2023/10/27 00:54:35;;;;;;;;;;;10.30;91.00;;;;;;4972439;28;19937;-68
2023/10/27 00:57:00;;;;;;;;;;;10.30;90.90;;;;;;4980275;28;20385;-69
2023/10/27 00:59:26;;;;;;;;;;;10.30;91.00;;;;;;4978331;28;19991;-69
2023/10/27 01:01:52;;;;;;;;;;;10.20;90.90;;;;;;4973594;28;19922;-68
2023/10/27 01:04:17;;;;;;;;;;;10.30;90.90;;;;;;4986102;28;19921;-68
2023/10/27 01:06:43;;;;;;;;;;;10.20;90.90;;;;;;5053673;28;19995;-68
2023/10/27 01:09:08;;;;;;;;;;;10.20;90.90;;;;;;4985882;28;19922;-68
2023/10/27 01:11:34;;;;;;;;;;;10.20;90.90;;;;;;4970524;28;19926;-69
2023/10/27 01:14:00;;;;;;;;;;;10.30;91.00;;;;;;4986390;28;19956;-68
2023/10/27 01:16:25;;;;;;;;;;;10.20;91.00;;;;;;4976117;28;19934;-69
2023/10/27 01:18:51;;;;;;;;;;;10.20;91.00;;;;;;4968190;28;19936;-68
2023/10/27 01:21:16;;;;;;;;;;;10.20;91.00;;;;;;4986549;28;19925;-68
2023/10/27 01:23:42;;;;;;;;;;;10.20;91.00;;;;;;4985262;28;19922;-68
2023/10/27 01:26:07;;;;;;;;;;;10.20;91.10;;;;;;4973422;28;20041;-68
2023/10/27 01:28:33;;;;;;;;;;;10.20;91.20;;;;;;4975127;28;19925;-69
2023/10/27 01:30:58;;;;;;;;;;;10.20;91.20;;;;;;5044574;28;19932;-69
2023/10/27 01:33:24;;;;;;;;;;;10.20;91.20;;;;;;4989030;28;20052;-68
2023/10/27 01:35:50;;;;;;;;;;;10.20;91.10;;;;;;5056645;28;19929;-68
2023/10/27 01:38:16;;;;;;;;;;;10.30;91.20;;;;;;4989125;28;20465;-68
2023/10/27 01:40:41;;;;;;;;;;;10.30;91.20;;;;;;4982977;28;19965;-68
2023/10/27 01:43:07;;;;;;;;;;;10.30;91.20;;;;;;4986478;28;19926;-69
2023/10/27 01:45:32;;;;;;;;;;;10.30;91.20;;;;;;5056759;28;20395;-69
2023/10/27 01:47:58;;;;;;;;;;;10.30;91.10;;;;;;4971879;28;19937;-68
2023/10/27 01:50:23;;;;;;;;;;;10.30;91.10;;;;;;4986211;28;19987;-68
2023/10/27 01:52:49;;;;;;;;;;;10.30;91.10;;;;;;4972255;28;19932;-68
2023/10/27 01:55:14;;;;;;;;;;;10.40;91.10;;;;;;4988848;28;19921;-68
2023/10/27 01:57:41;;;;;;;;;;;10.30;91.10;;;;;;4984202;28;19976;-69
2023/10/27 02:00:07;;;;;;;;;;;10.30;91.10;;;;;;4981228;28;19921;-68
2023/10/27 02:02:34;;;;;;;;;;;10.40;91.20;;;;;;4984625;28;20428;-69
2023/10/27 02:05:01;;;;;;;;;;;10.40;91.10;;;;;;4973429;28;19973;-69
2023/10/27 02:07:27;;;;;;;;;;;10.40;91.20;;;;;;4971672;28;19933;-68
2023/10/27 02:09:52;;;;;;;;;;;10.40;91.20;;;;;;4980579;28;19925;-69
2023/10/27 02:12:18;;;;;;;;;;;10.40;91.20;;;;;;4974970;28;19932;-69
2023/10/27 02:14:43;;;;;;;;;;;10.40;91.10;;;;;;4978026;28;19922;-69
2023/10/27 02:17:10;;;;;;;;;;;10.40;91.10;;;;;;4973447;28;19961;-68
2023/10/27 02:19:35;;;;;;;;;;;10.40;91.20;;;;;;4988501;28;19932;-68
2023/10/27 02:22:02;;;;;;;;;;;10.40;91.20;;;;;;4978472;28;19922;-68
2023/10/27 02:24:27;;;;;;;;;;;10.40;91.10;;;;;;4970694;28;19929;-68
2023/10/27 02:26:53;;;;;;;;;;;10.40;91.10;;;;;;4990331;28;19922;-68
2023/10/27 02:29:20;;;;;;;;;;;10.40;91.00;;;;;;4989828;28;19929;-68
2023/10/27 02:31:45;;;;;;;;;;;10.30;91.20;;;;;;4989728;28;19961;-68
2023/10/27 02:34:11;;;;;;;;;;;10.40;91.20;;;;;;5040486;28;19964;-69
2023/10/27 02:36:37;;;;;;;;;;;10.30;91.20;;;;;;4990291;28;19961;-69
2023/10/27 02:39:02;;;;;;;;;;;10.30;91.20;;;;;;4989677;28;19922;-68
2023/10/27 02:41:28;;;;;;;;;;;10.30;91.20;;;;;;4989735;28;19948;-68
2023/10/27 02:43:53;;;;;;;;;;;10.30;91.10;;;;;;4990654;28;20397;-69
2023/10/27 02:46:19;;;;;;;;;;;10.30;91.20;;;;;;4989952;28;19969;-69
2023/10/27 02:48:44;;;;;;;;;;;10.40;91.20;;;;;;4989609;28;19928;-68
2023/10/27 02:51:11;;;;;;;;;;;10.30;91.20;;;;;;4989786;28;19929;-68
2023/10/27 02:53:36;;;;;;;;;;;10.30;91.10;;;;;;5057343;28;19933;-68
2023/10/27 02:56:09;;;;;;;;;;;10.40;91.20;;;;;;4990119;28;20297;-69
2023/10/27 02:58:34;;;;;;;;;;;10.30;91.20;;;;;;5055093;28;19924;-68
2023/10/27 03:01:05;;;;;;;;;;;10.40;91.20;;;;;;5067131;28;19921;-69
2023/10/27 03:03:32;;;;;;;;;;;10.40;91.20;;;;;;4990007;28;20075;-68
2023/10/27 03:05:57;;;;;;;;;;;10.40;91.10;;;;;;4989873;28;19922;-68
2023/10/27 03:08:23;;;;;;;;;;;10.30;91.00;;;;;;4989601;28;19929;-68
2023/10/27 03:10:49;;;;;;;;;;;10.50;91.20;;;;;;4989717;28;19932;-69
2023/10/27 03:13:14;;;;;;;;;;;10.40;91.10;;;;;;4989496;28;19929;-68
2023/10/27 03:15:40;;;;;;;;;;;10.40;91.10;;;;;;4989760;28;19922;-68
2023/10/27 03:18:05;;;;;;;;;;;10.40;91.20;;;;;;4989878;28;20036;-68
2023/10/27 03:20:31;;;;;;;;;;;10.40;91.20;;;;;;4989709;28;19933;-68
2023/10/27 03:22:56;;;;;;;;;;;10.30;91.30;;;;;;4989106;28;19922;-68
2023/10/27 03:25:21;;;;;;;;;;;10.30;91.30;;;;;;4988656;28;20277;-68
2023/10/27 03:27:47;;;;;;;;;;;10.30;91.40;;;;;;4989759;28;19951;-68
2023/10/27 03:30:13;;;;;;;;;;;10.30;91.30;;;;;;4989515;28;20239;-68
2023/10/27 03:32:38;;;;;;;;;;;10.30;91.30;;;;;;4989283;28;19976;-68
2023/10/27 03:35:04;;;;;;;;;;;10.30;91.30;;;;;;4989336;28;20005;-67
2023/10/27 03:37:30;;;;;;;;;;;10.30;91.30;;;;;;4989378;28;19929;-68
2023/10/27 03:39:55;;;;;;;;;;;10.30;91.20;;;;;;4989276;28;20013;-68
2023/10/27 03:42:21;;;;;;;;;;;10.20;91.20;;;;;;4989308;28;20413;-68
2023/10/27 03:44:46;;;;;;;;;;;10.20;91.30;;;;;;4988128;28;19936;-68
2023/10/27 03:47:12;;;;;;;;;;;10.30;91.30;;;;;;4989461;28;19975;-68
2023/10/27 03:49:37;;;;;;;;;;;10.20;91.20;;;;;;4989404;28;19995;-68
2023/10/27 03:52:03;;;;;;;;;;;10.20;91.20;;;;;;4988660;28;19972;-68
2023/10/27 03:54:28;;;;;;;;;;;10.20;91.20;;;;;;4989192;28;19926;-68
2023/10/27 03:56:55;;;;;;;;;;;10.20;91.30;;;;;;4987318;28;19921;-69
2023/10/27 03:59:21;;;;;;;;;;;10.20;91.20;;;;;;4974639;28;19921;-68
2023/10/27 04:01:46;;;;;;;;;;;10.10;91.40;;;;;;5055268;28;20262;-68
2023/10/27 04:04:12;;;;;;;;;;;10.10;91.30;;;;;;4989134;28;19929;-67
2023/10/27 04:06:38;;;;;;;;;;;10.10;91.30;;;;;;4989258;28;19996;-67
2023/10/27 04:09:03;;;;;;;;;;;10.10;91.30;;;;;;5056308;28;19928;-68
2023/10/27 04:11:29;;;;;;;;;;;10.10;91.50;;;;;;4978303;28;20357;-68
2023/10/27 04:13:55;;;;;;;;;;;10.10;91.50;;;;;;5060191;28;20384;-68
2023/10/27 04:16:20;;;;;;;;;;;10.10;91.40;;;;;;5053695;28;19922;-68
2023/10/27 04:18:45;;;;;;;;;;;10.10;91.50;;;;;;4988537;28;19936;-68
2023/10/27 04:21:11;;;;;;;;;;;10.00;91.60;;;;;;4987717;28;19928;-68
2023/10/27 04:23:37;;;;;;;;;;;10.00;91.60;;;;;;4987949;28;19943;-69
2023/10/27 04:26:02;;;;;;;;;;;10.10;91.50;;;;;;4988335;28;19926;-68
2023/10/27 04:28:28;;;;;;;;;;;10.10;91.60;;;;;;4984833;28;20003;-68
2023/10/27 04:30:53;;;;;;;;;;;10.10;91.60;;;;;;4984850;28;19922;-68
2023/10/27 04:33:20;;;;;;;;;;;10.10;91.60;;;;;;4988678;28;19930;-68
2023/10/27 04:35:45;;;;;;;;;;;10.10;91.60;;;;;;4988310;28;20507;-68
2023/10/27 04:38:11;;;;;;;;;;;10.00;91.60;;;;;;4969839;28;19925;-68
2023/10/27 04:40:37;;;;;;;;;;;10.10;91.70;;;;;;5047766;28;19922;-68
2023/10/27 04:43:03;;;;;;;;;;;10.10;91.70;;;;;;4988496;28;19926;-68
2023/10/27 04:45:29;;;;;;;;;;;10.10;91.70;;;;;;4988051;28;19983;-68
2023/10/27 04:47:54;;;;;;;;;;;10.10;91.60;;;;;;4988361;28;19921;-68
2023/10/27 04:50:20;;;;;;;;;;;10.10;91.60;;;;;;4987860;28;20296;-68
2023/10/27 04:52:45;;;;;;;;;;;10.10;91.50;;;;;;4988040;28;20549;-68
2023/10/27 04:55:11;;;;;;;;;;;10.00;91.60;;;;;;4987531;28;19945;-68
2023/10/27 04:57:37;;;;;;;;;;;10.10;91.60;;;;;;4987974;28;19978;-68
2023/10/27 05:00:08;;;;;;;;;;;10.10;91.60;;;;;;4987369;28;19973;-68
2023/10/27 05:02:33;;;;;;;;;;;10.10;91.60;;;;;;4988217;28;19965;-68
2023/10/27 05:04:59;;;;;;;;;;;10.10;91.40;;;;;;4988048;28;20389;-68
2023/10/27 05:07:24;;;;;;;;;;;10.10;91.50;;;;;;4988050;28;19922;-68
2023/10/27 05:09:51;;;;;;;;;;;10.10;91.50;;;;;;4987827;28;19961;-68
2023/10/27 05:12:16;;;;;;;;;;;10.10;91.40;;;;;;4983274;28;19926;-68
2023/10/27 05:14:42;;;;;;;;;;;10.10;91.50;;;;;;4978111;28;19926;-68
2023/10/27 05:17:08;;;;;;;;;;;10.10;91.50;;;;;;4984128;28;19962;-68
2023/10/27 05:19:34;;;;;;;;;;;10.10;91.50;;;;;;4979790;28;19925;-67
2023/10/27 05:22:04;;;;;;;;;;;10.10;91.50;;;;;;4982875;28;19967;-68
2023/10/27 05:24:30;;;;;;;;;;;10.10;91.40;;;;;;5042962;28;19941;-68
2023/10/27 05:26:55;;;;;;;;;;;10.10;91.50;;;;;;4983075;28;19997;-68
2023/10/27 05:29:21;;;;;;;;;;;10.10;91.40;;;;;;4982447;28;19921;-68
2023/10/27 05:31:46;;;;;;;;;;;10.10;91.40;;;;;;4987883;28;20016;-68
2023/10/27 05:34:12;;;;;;;;;;;10.10;91.40;;;;;;5017622;28;19929;-68
2023/10/27 05:36:38;;;;;;;;;;;10.10;91.40;;;;;;4987850;28;20373;-68
2023/10/27 05:39:03;;;;;;;;;;;10.10;91.40;;;;;;4987297;28;20338;-68
2023/10/27 05:41:29;;;;;;;;;;;10.20;91.40;;;;;;4987854;28;20004;-68
2023/10/27 05:43:54;;;;;;;;;;;10.10;91.40;;;;;;4978297;28;19922;-68
2023/10/27 05:46:20;;;;;;;;;;;10.10;91.40;;;;;;4969443;28;19929;-68
2023/10/27 05:48:46;;;;;;;;;;;10.10;91.40;;;;;;4971896;28;19930;-68
2023/10/27 05:51:11;;;;;;;;;;;10.10;91.40;;;;;;4969653;28;20413;-67
2023/10/27 05:53:38;;;;;;;;;;;10.20;91.40;;;;;;4981067;28;19930;-68
2023/10/27 05:56:04;;;;;;;;;;;10.20;91.40;;;;;;4969658;28;20300;-67
2023/10/27 05:58:35;;;;;;;;;;;10.10;91.30;;;;;;4967837;28;19922;-68
2023/10/27 06:01:01;;;;;;;;;;;10.10;91.30;;;;;;5046641;28;19926;-67
2023/10/27 06:03:27;;;;;;;;;;;10.10;91.30;;;;;;4987339;28;20275;-68
2023/10/27 06:05:52;;;;;;;;;;;10.10;91.40;;;;;;4980990;28;19922;-70
2023/10/27 06:08:18;;;;;;;;;;;10.10;91.40;;;;;;4985254;28;19937;-67
2023/10/27 06:10:44;;;;;;;;;;;10.10;91.40;;;;;;4990562;28;19996;-68
2023/10/27 06:13:10;;;;;;;;;;;10.10;91.40;;;;;;4990301;28;20708;-67
2023/10/27 06:15:35;;;;;;;;;;;10.10;91.40;;;;;;4989113;28;19961;-68
2023/10/27 06:18:01;;;;;;;;;;;10.10;91.40;;;;;;4989977;28;20012;-68
2023/10/27 06:20:26;;;;;;;;;;;10.10;91.40;;;;;;4990056;28;20016;-68
2023/10/27 06:22:52;;;;;;;;;;;10.10;91.50;;;;;;5046546;28;20000;-68
2023/10/27 06:25:18;;;;;;;;;;;10.10;91.50;;;;;;4975152;28;19976;-67
2023/10/27 06:27:43;;;;;;;;;;;10.10;91.40;;;;;;4989492;28;19922;-67
2023/10/27 06:30:09;;;;;;;;;;;10.10;91.40;;;;;;4988372;28;19929;-65
2023/10/27 06:32:34;;;;;;;;;;;10.10;91.50;;;;;;4986956;28;20020;-64
2023/10/27 06:35:00;;;;;;;;;;;10.20;91.60;;;;;;5054385;28;20546;-64
2023/10/27 06:37:26;;;;;;;;;;;10.20;91.50;;;;;;4987547;28;19975;-64
2023/10/27 06:39:58;;;;;;;;;;;10.30;91.50;;;;;;4987664;28;19922;-64
2023/10/27 06:42:25;;;;;;;;;;;10.30;91.60;;;;;;5054886;28;19921;-64
2023/10/27 06:44:51;;;;;;;;;;;10.40;91.50;;;;;;4988601;28;19922;-64
2023/10/27 06:47:18;;;;;;;;;;;10.30;91.50;;;;;;4989036;28;19938;-65
2023/10/27 06:49:44;;;;;;;;;;;10.30;91.50;;;;;;5057662;28;19929;-65
2023/10/27 06:52:10;;;;;;;;;;;10.30;91.50;;;;;;4989506;28;20345;-65
2023/10/27 06:54:35;;;;;;;;;;;10.40;91.50;;;;;;4990007;28;20738;-65
2023/10/27 06:57:01;;;;;;;;;;;10.40;91.50;;;;;;4990312;28;19922;-64
2023/10/27 06:59:28;;;;;;;;;;;10.40;91.40;;;;;;4989659;28;19925;-64
2023/10/27 07:01:54;;;;;;;;;;;10.40;91.40;;;;;;4990028;28;20392;-64
2023/10/27 07:04:20;;;;;;;;;;;10.40;91.50;;;;;;4989962;28;19921;-64
2023/10/27 07:50:20;;;;;;;;;;;10.50;91.30;;;;;;4980937;28;19933;-64
2023/10/27 07:52:46;;;;;;;;;;;10.50;91.30;;;;;;4987300;28;19922;-65
2023/10/27 07:55:11;;;;;;;;;;;10.50;91.30;;;;;;4987891;28;19957;-65
2023/10/27 07:57:37;;;;;;;;;;;10.60;91.30;;;;;;4988707;28;19926;-65
2023/10/27 08:00:04;;;;;;;;;;;10.60;91.30;;;;;;4999909;28;19926;-65
2023/10/27 08:02:32;;;;;;;;;;;10.60;91.20;;;;;;4988022;28;19948;-65
2023/10/27 08:04:58;;;;;;;;;;;10.70;91.30;;;;;;4987054;28;19922;-65
2023/10/27 08:07:23;;;;;;;;;;;10.70;91.20;;;;;;4986626;28;19999;-65
2023/10/27 08:09:49;;;;;;;;;;;10.70;91.10;;;;;;4969164;28;19929;-65
2023/10/27 08:12:15;;;;;;;;;;;10.70;91.20;;;;;;4987140;28;19922;-65
2023/10/27 08:14:41;;;;;;;;;;;10.70;91.10;;;;;;4998926;28;19922;-65
2023/10/27 08:17:06;;;;;;;;;;;10.80;91.10;;;;;;4986857;28;20008;-65
2023/10/27 08:19:32;;;;;;;;;;;10.70;91.10;;;;;;4986290;28;19951;-65
2023/10/27 08:21:57;;;;;;;;;;;10.70;91.10;;;;;;4986340;28;19921;-66
2023/10/27 08:24:23;;;;;;;;;;;10.80;91.10;;;;;;4987362;28;20055;-65
2023/10/27 08:26:48;;;;;;;;;;;10.80;91.10;;;;;;4989587;28;19921;-64
2023/10/27 08:29:14;;;;;;;;;;;10.70;91.00;;;;;;4986690;28;19928;-65
2023/10/27 08:31:39;;;;;;;;;;;10.80;90.90;;;;;;4967771;28;19926;-65
2023/10/27 08:34:06;;;;;;;;;;;10.80;90.90;;;;;;4986287;28;20020;-65
2023/10/27 08:36:32;;;;;;;;;;;10.80;90.90;;;;;;4986743;28;19925;-65
2023/10/27 08:38:57;;;;;;;;;;;10.70;90.90;;;;;;4986313;28;19929;-65
2023/10/27 08:41:24;;;;;;;;;;;10.80;90.90;;;;;;4983300;28;19972;-65
2023/10/27 08:43:49;;;;;;;;;;;10.80;90.90;;;;;;4987056;28;19925;-66
2023/10/27 08:46:15;;;;;;;;;;;10.80;90.80;;;;;;4986574;28;20394;-65
2023/10/27 08:48:42;;;;;;;;;;;10.80;90.80;;;;;;4991123;28;19925;-66
2023/10/27 08:51:09;;;;;;;;;;;10.80;90.80;;;;;;5004103;28;19927;-65
2023/10/27 08:53:39;;;;;;;;;;;10.80;90.80;;;;;;4992456;28;19922;-65
2023/10/27 08:56:05;;;;;;;;;;;10.80;90.80;;;;;;4991471;28;19974;-66
2023/10/27 08:58:30;;;;;;;;;;;10.80;90.80;;;;;;4987252;28;19925;-65
2023/10/27 09:00:55;;;;;;;;;;;10.90;90.80;;;;;;4986776;28;19938;-65
2023/10/27 09:03:21;;;;;;;;;;;10.90;90.80;;;;;;4987055;28;19936;-65
2023/10/27 09:05:46;;;;;;;;;;;10.90;90.80;;;;;;4986628;28;19975;-65
2023/10/27 09:08:12;;;;;;;;;;;11.00;90.80;;;;;;4986970;28;20343;-65
2023/10/27 09:10:38;;;;;;;;;;;11.00;90.70;;;;;;4986822;28;19922;-65
2023/10/27 09:13:04;;;;;;;;;;;11.00;90.80;;;;;;4986843;28;20435;-65
2023/10/27 09:15:50;;;;;;;;;;;11.00;90.60;;;;;;4968754;28;20381;-65
2023/10/27 09:18:15;;;;;;;;;;;11.00;90.90;;;;;;4986818;28;19921;-65
2023/10/27 09:20:50;;;;;;;;;;;11.00;90.80;;;;;;4985928;28;20381;-65
2023/10/27 09:23:16;;;;;;;;;;;11.10;90.70;;;;;;4983902;28;19922;-65
2023/10/27 09:25:42;;;;;;;;;;;11.10;90.80;;;;;;4990030;28;20445;-65
2023/10/27 09:28:08;;;;;;;;;;;11.10;90.80;;;;;;4987140;28;19921;-65
2023/10/27 09:30:34;;;;;;;;;;;11.10;90.80;;;;;;4993767;28;19991;-64
2023/10/27 09:33:12;;;;;;;;;;;11.20;90.70;;;;;;5006439;28;19922;-65
2023/10/27 09:35:38;;;;;;;;;;;11.20;90.60;;;;;;4990583;28;19928;-65
2023/10/27 09:38:04;;;;;;;;;;;11.20;90.60;;;;;;4986910;28;20012;-65
2023/10/27 09:40:30;;;;;;;;;;;11.20;90.60;;;;;;5003354;28;19925;-65
2023/10/27 09:42:58;;;;;;;;;;;11.20;90.60;;;;;;5004696;28;19951;-65
2023/10/27 09:45:27;;;;;;;;;;;11.20;90.60;;;;;;4990418;28;19979;-65
2023/10/27 09:47:58;;;;;;;;;;;11.30;90.60;;;;;;4989784;28;19957;-65
2023/10/27 09:50:24;;;;;;;;;;;11.30;90.60;;;;;;4989152;28;19929;-67
2023/10/27 09:52:50;;;;;;;;;;;11.40;90.60;;;;;;4988952;28;19922;-65
2023/10/27 09:55:19;;;;;;;;;;;11.40;90.50;;;;;;4989230;28;19975;-65
2023/10/27 09:57:45;;;;;;;;;;;11.40;90.40;;;;;;4989415;28;19971;-64
2023/10/27 10:00:13;;;;;;;;;;;11.50;90.30;;;;;;4989374;28;19922;-64
2023/10/27 10:02:39;;;;;;;;;;;11.40;90.20;;;;;;4990134;28;19930;-65
2023/10/27 10:05:08;;;;;;;;;;;11.30;90.10;;;;;;4990254;28;19979;-64
2023/10/27 10:07:34;;;;;;;;;;;11.50;90.10;;;;;;4990170;28;19925;-64
2023/10/27 10:10:19;;;;;;;;;;;11.40;90.00;;;;;;4990273;28;19925;-64
2023/10/27 10:12:57;;;;;;;;;;;11.40;90.00;;;;;;4989515;28;19944;-64
2023/10/27 10:15:23;;;;;;;;;;;11.40;89.90;;;;;;4989461;28;19922;-64
2023/10/27 10:17:49;;;;;;;;;;;11.30;89.80;;;;;;4990022;28;19929;-65
2023/10/27 10:20:15;;;;;;;;;;;11.40;89.90;;;;;;4972293;28;19921;-64
2023/10/27 10:22:40;;;;;;;;;;;11.40;89.80;;;;;;4989413;28;19922;-64
2023/10/27 10:25:15;;;;;;;;;;;11.40;89.90;;;;;;4989613;28;19928;-64
2023/10/27 10:27:59;;;;;;;;;;;11.40;89.90;;;;;;4988378;28;19957;-64
2023/10/27 10:30:25;;;;;;;;;;;11.40;89.80;;;;;;4988716;28;19929;-64
2023/10/27 10:32:57;;;;;;;;;;;11.50;89.90;;;;;;4988605;28;19977;-64
2023/10/27 10:35:23;;;;;;;;;;;11.50;89.80;;;;;;4988875;28;19921;-64
2023/10/27 10:37:51;;;;;;;;;;;11.60;89.80;;;;;;4988613;28;19944;-64
2023/10/27 10:40:24;;;;;;;;;;;11.50;89.30;;;;;;4988115;28;19922;-64
2023/10/27 10:43:16;;;;;;;;;;;11.50;89.50;;;;;;4992504;28;19928;-64
2023/10/27 10:45:45;;;;;;;;;;;11.50;89.50;;;;;;4989824;28;19932;-64
2023/10/27 10:48:12;;;;;;;;;;;11.50;89.50;;;;;;4988811;28;19921;-64
2023/10/27 10:50:37;;;;;;;;;;;11.60;89.50;;;;;;4979269;28;19922;-63
2023/10/27 10:53:30;;;;;;;;;;;11.60;89.50;;;;;;4987325;28;19937;-64
2023/10/27 10:55:57;;;;;;;;;;;11.60;89.50;;;;;;4986354;28;19922;-63
2023/10/27 10:58:27;;;;;;;;;;;11.70;89.50;;;;;;4988691;28;20400;-63
2023/10/27 11:00:53;;;;;;;;;;;11.60;89.50;;;;;;4969639;28;19926;-63
2023/10/27 11:03:23;;;;;;;;;;;11.70;89.20;;;;;;4982431;28;19945;-64
2023/10/27 11:05:51;;;;;;;;;;;11.60;88.90;;;;;;4988268;28;19929;-63
2023/10/27 11:08:26;;;;;;;;;;;11.60;89.00;;;;;;4988538;28;20350;-63
2023/10/27 11:11:02;;;;;;;;;;;11.70;89.20;;;;;;5007895;28;19932;-64
2023/10/27 11:13:28;;;;;;;;;;;11.80;89.10;;;;;;5000910;28;20010;-67
2023/10/27 11:15:53;;;;;;;;;;;11.70;89.00;;;;;;4988514;28;20380;-67
2023/10/27 11:18:19;;;;;;;;;;;12.30;90.90;;;;;;4988825;28;20316;-67
2023/10/27 11:20:44;;;;;;;;;;;12.70;89.40;;;;;;4988319;28;20008;-64
2023/10/27 11:23:11;;;;;;;;;;;13.00;88.30;;;;;;4985933;28;19980;-63
2023/10/27 11:25:37;;;;;;;;;;;12.80;85.90;;;;;;4994825;28;19922;-63
2023/10/27 11:28:22;;;;;;;;;;;12.50;86.10;;;;;;5003738;28;19936;-63
2023/10/27 11:30:59;;;;;;;;;;;12.40;86.60;;;;;;4987958;28;19937;-64
2023/10/27 11:33:25;;;;;;;;;;;12.30;86.90;;;;;;4968570;28;20389;-63
2023/10/27 11:35:51;;;;;;;;;;;12.20;87.30;;;;;;4977180;28;19936;-64
2023/10/27 11:38:16;;;;;;;;;;;12.20;87.70;;;;;;4987292;28;19967;-64
2023/10/27 11:40:42;;;;;;;;;;;12.10;87.80;;;;;;5004875;28;20284;-63
2023/10/27 11:43:07;;;;;;;;;;;12.10;88.00;;;;;;5002617;28;20452;-63
2023/10/27 11:45:36;;;;;;;;;;;12.00;88.20;;;;;;4988077;28;19925;-63
2023/10/27 11:48:03;;;;;;;;;;;12.00;88.40;;;;;;4987144;28;20403;-63
2023/10/27 11:50:29;;;;;;;;;;;12.00;88.50;;;;;;4987638;28;20017;-63
2023/10/27 11:52:54;;;;;;;;;;;11.90;88.60;;;;;;4987510;28;20012;-63
2023/10/27 11:55:20;;;;;;;;;;;11.90;88.80;;;;;;4992415;28;20308;-63
2023/10/27 11:57:45;;;;;;;;;;;11.80;88.80;;;;;;5007604;28;19932;-63
2023/10/27 12:00:11;;;;;;;;;;;11.80;88.90;;;;;;5006875;28;19925;-63
2023/10/27 12:02:36;;;;;;;;;;;11.70;88.90;;;;;;5007124;28;19925;-63
2023/10/27 12:05:02;;;;;;;;;;;11.70;89.10;;;;;;5006841;28;19929;-63
2023/10/27 12:07:27;;;;;;;;;;;11.60;89.10;;;;;;5000828;28;19929;-63
2023/10/27 12:09:52;;;;;;;;;;;11.70;89.20;;;;;;4986944;28;19972;-62
2023/10/27 12:12:18;;;;;;;;;;;11.60;89.20;;;;;;4987318;28;19922;-63
2023/10/27 12:14:43;;;;;;;;;;;11.70;89.30;;;;;;4987700;28;19926;-63
2023/10/27 12:17:09;;;;;;;;;;;11.70;89.40;;;;;;4987409;28;19926;-63
2023/10/27 12:19:35;;;;;;;;;;;11.70;89.40;;;;;;4987496;28;19922;-64
2023/10/27 12:22:01;;;;;;;;;;;11.60;89.40;;;;;;4987447;28;19970;-64
2023/10/27 12:24:27;;;;;;;;;;;11.70;89.50;;;;;;4986549;28;20587;-63
2023/10/27 12:26:55;;;;;;;;;;;11.70;89.60;;;;;;4987216;28;20632;-63
2023/10/27 12:29:22;;;;;;;;;;;11.70;89.60;;;;;;4987383;28;19937;-64
2023/10/27 12:31:48;;;;;;;;;;;11.60;89.60;;;;;;4991776;28;20392;-64
2023/10/27 12:34:13;;;;;;;;;;;11.60;89.70;;;;;;5006625;28;19921;-64
2023/10/27 12:36:39;;;;;;;;;;;11.60;89.60;;;;;;5006244;28;19925;-63
2023/10/27 12:39:04;;;;;;;;;;;11.60;89.70;;;;;;4986548;28;19922;-64
2023/10/27 12:41:30;;;;;;;;;;;11.70;89.90;;;;;;4987225;28;19926;-63
2023/10/27 12:43:55;;;;;;;;;;;11.70;89.90;;;;;;4987121;28;19922;-63
2023/10/27 12:46:22;;;;;;;;;;;11.70;89.90;;;;;;4986495;28;19921;-63
2023/10/27 12:48:49;;;;;;;;;;;11.70;89.90;;;;;;4986107;28;19971;-64
2023/10/27 12:51:16;;;;;;;;;;;11.70;90.00;;;;;;4986518;28;19937;-63
2023/10/27 12:53:43;;;;;;;;;;;11.80;90.00;;;;;;4984924;28;19926;-64
2023/10/27 12:56:08;;;;;;;;;;;11.80;90.10;;;;;;4987395;28;20523;-64
2023/10/27 12:58:34;;;;;;;;;;;11.80;90.10;;;;;;4985795;28;20012;-64
2023/10/27 13:01:00;;;;;;;;;;;11.80;90.10;;;;;;4985736;28;19922;-63
2023/10/27 13:03:26;;;;;;;;;;;11.90;90.10;;;;;;4985578;28;19922;-65
2023/10/27 13:05:52;;;;;;;;;;;11.90;90.10;;;;;;4985326;28;19922;-64
2023/10/27 13:08:17;;;;;;;;;;;11.90;90.10;;;;;;4984815;28;19922;-64
2023/10/27 13:10:44;;;;;;;;;;;11.90;90.20;;;;;;4985657;28;20003;-64
2023/10/27 13:13:10;;;;;;;;;;;12.00;90.20;;;;;;4984653;28;19926;-64
2023/10/27 13:15:35;;;;;;;;;;;12.00;90.20;;;;;;4985887;28;19926;-64
2023/10/27 13:18:02;;;;;;;;;;;12.00;90.20;;;;;;5006060;28;19921;-65
2023/10/27 13:20:28;;;;;;;;;;;12.00;90.10;;;;;;4998879;28;19930;-65
2023/10/27 13:22:54;;;;;;;;;;;12.00;90.10;;;;;;4989059;28;19926;-64
2023/10/27 13:25:20;;;;;;;;;;;12.00;90.10;;;;;;4993633;28;19921;-63
2023/10/27 13:27:48;;;;;;;;;;;12.00;90.00;;;;;;4999029;28;19926;-64
2023/10/27 13:30:14;;;;;;;;;;;12.00;90.00;;;;;;4988839;28;19921;-64
2023/10/27 13:32:41;;;;;;;;;;;12.00;90.10;;;;;;4988996;28;19921;-64
2023/10/27 13:35:07;;;;;;;;;;;12.00;90.00;;;;;;4988413;28;19937;-64
2023/10/27 13:37:33;;;;;;;;;;;12.00;90.10;;;;;;4987554;28;19926;-65
2023/10/27 13:39:58;;;;;;;;;;;12.00;90.10;;;;;;4988182;28;20503;-65
2023/10/27 13:42:24;;;;;;;;;;;12.00;90.10;;;;;;4987292;28;19932;-64
2023/10/27 13:44:50;;;;;;;;;;;12.00;90.20;;;;;;4987099;28;20370;-65
2023/10/27 13:47:15;;;;;;;;;;;12.00;90.20;;;;;;4987045;28;20020;-65
2023/10/27 13:49:40;;;;;;;;;;;12.00;90.10;;;;;;4986141;28;20016;-65
2023/10/27 13:52:06;;;;;;;;;;;12.00;90.10;;;;;;4986797;28;20576;-68
2023/10/27 13:54:33;;;;;;;;;;;12.20;91.50;;;;;;4989227;28;19921;-64
2023/10/27 13:56:59;;;;;;;;;;;12.30;90.60;;;;;;4989693;28;19984;-63
2023/10/27 13:59:24;;;;;;;;;;;12.30;90.30;;;;;;4988801;28;19975;-64
2023/10/27 14:01:50;;;;;;;;;;;12.40;90.10;;;;;;4989139;28;19930;-64
2023/10/27 14:04:15;;;;;;;;;;;12.30;90.00;;;;;;4988972;28;19922;-64
2023/10/27 14:06:46;;;;;;;;;;;12.20;89.90;;;;;;4989474;28;19941;-64
2023/10/27 14:09:14;;;;;;;;;;;12.20;89.90;;;;;;4990077;28;20359;-64
2023/10/27 14:11:41;;;;;;;;;;;12.20;89.90;;;;;;5009335;28;19922;-64
2023/10/27 14:14:06;;;;;;;;;;;12.20;89.70;;;;;;5008834;28;19922;-64
2023/10/27 14:16:32;;;;;;;;;;;12.10;89.80;;;;;;5009433;28;19926;-64
2023/10/27 14:18:57;;;;;;;;;;;12.10;89.80;;;;;;5009005;28;19925;-64
2023/10/27 14:21:23;;;;;;;;;;;12.10;89.80;;;;;;5008625;28;19921;-64
2023/10/27 14:23:48;;;;;;;;;;;12.10;89.80;;;;;;5008756;28;19925;-64
2023/10/27 14:26:14;;;;;;;;;;;12.10;89.80;;;;;;4992689;28;19922;-64
2023/10/27 14:28:42;;;;;;;;;;;12.10;89.80;;;;;;4988992;28;20434;-65
2023/10/27 14:31:07;;;;;;;;;;;12.10;89.80;;;;;;4988247;28;19992;-64
2023/10/27 14:33:35;;;;;;;;;;;12.10;89.90;;;;;;4995552;28;19925;-64
2023/10/27 14:36:07;;;;;;;;;;;12.10;89.90;;;;;;5008341;28;19921;-64
2023/10/27 14:38:33;;;;;;;;;;;12.00;89.80;;;;;;4992925;28;20438;-64
2023/10/27 14:40:59;;;;;;;;;;;12.10;89.90;;;;;;4987413;28;20428;-75
2023/10/27 14:43:24;;;;;;;;;;;12.10;90.30;;;;;;4986567;28;19969;-64
2023/10/27 14:45:57;;;;;;;;;;;12.10;90.20;;;;;;4988507;28;20634;-63
2023/10/27 14:48:22;;;;;;;;;;;12.10;90.00;;;;;;4984401;28;19926;-64
2023/10/27 14:51:15;;;;;;;;;;;12.20;90.00;;;;;;4979634;28;20440;-64
2023/10/27 14:53:40;;;;;;;;;;;12.10;90.00;;;;;;4987678;28;20408;-64
2023/10/27 14:56:13;;;;;;;;;;;12.10;90.00;;;;;;4986178;28;19955;-64